This is the latest recevied weather packets stored in our database for station/object PE1BMM-13. If no packets are shown the sender has not sent any weather packets the latest 10 day(s).
| Time | Temp. | Humidity | Pressure | Rain* | Wind** | Luminosity | Snow |
|---|---|---|---|---|---|---|---|
| 1777842344 | 14.44° C | 91% | 1011.4 hPa | 0 mm | - | - | - |
| 1777837540 | 15° C | 89% | 1011.1 hPa | 0 mm | - | - | - |
| 1777836941 | 15° C | 89% | 1011 hPa | 0 mm | - | - | - |
| 1777830902 | 15.56° C | 88% | 1010 hPa | 0 mm | - | - | - |
| 1777829737 | 15.56° C | 88% | 1010.1 hPa | 0 mm | - | - | - |
| 1777824330 | 16.67° C | 86% | 1010 hPa | 0 mm | - | - | - |
| 1777820089 | 15.56° C | 90% | 1009.8 hPa | 0 mm | - | - | - |
| 1777815927 | 15.56° C | 92% | 1010.3 hPa | 0 mm | - | - | - |
| 1777815329 | 15.56° C | 93% | 1010.5 hPa | 0 mm | - | - | - |
| 1777813528 | 15° C | 96% | 1010.8 hPa | 0.25 mm | - | - | - |
| 1777813485 | 15° C | 96% | 1010.8 hPa | 0.51 mm | - | - | - |
| 1777805121 | 15° C | 95% | 1010.6 hPa | 1.52 mm | - | - | - |
| 1777794309 | 14.44° C | 96% | 1010.4 hPa | 0.25 mm | - | - | - |
| 1777792505 | 14.44° C | 96% | 1010.5 hPa | 0 mm | - | - | - |
| 1777792188 | 14.44° C | 96% | 1010.5 hPa | 0 mm | - | - | - |
| 1777787100 | 13.89° C | 97% | 1010.6 hPa | 0 mm | - | - | - |
| 1777786503 | 13.89° C | 97% | 1010.9 hPa | 0 mm | - | - | - |
| 1777785302 | 12.78° C | 96% | 1010.9 hPa | 0 mm | - | - | - |
| 1777778687 | 13.33° C | 95% | 1011.8 hPa | 0 mm | - | - | - |
| 1777778088 | 13.33° C | 95% | 1011.9 hPa | 0 mm | - | - | - |
| 1777777783 | 13.33° C | 95% | 1011.7 hPa | 0 mm | - | - | - |
| 1777768482 | 13.33° C | 94% | 1012 hPa | 0 mm | - | - | - |
| 1777764272 | 13.33° C | 93% | 1013 hPa | 0.76 mm | - | - | - |
| 1777763673 | 13.89° C | 93% | 1013.2 hPa | 0.51 mm | - | - | - |
| 1777763076 | 13.89° C | 93% | 1013.5 hPa | 0.51 mm | - | - | - |
* Rain latest hour (hover to see other rain measurements)
** Current wind speed in m/s (hover to see current wind gust speed)